Time;durP1;ratioP1;P1;durP2;ratioP2;P2;SDS_P1;SDS_P2;PMS_P1;PMS_P2;Temp;Humidity;BMP_temperature;BMP_pressure;BME280_temperature;BME280_humidity;BME280_pressure;Samples;Min_cycle;Max_cycle;Signal;HPM_P1;HPM_P2
2022/12/19 00:02:03;;;;;;;36.10;11.93;;;;;;;-2.47;100.00;99791.25;5013275;28;20017;-56
2022/12/19 00:04:28;;;;;;;32.55;11.40;;;;;;;-2.36;100.00;99794.06;5016420;28;20032;-57
2022/12/19 00:06:57;;;;;;;35.67;11.10;;;;;;;-2.32;100.00;99794.75;5016799;28;20075;-56
2022/12/19 00:09:22;;;;;;;32.50;12.07;;;;;;;-2.48;100.00;99789.56;5016194;28;20032;-56
2022/12/19 00:11:48;;;;;;;33.58;12.05;;;;;;;-2.58;100.00;99783.97;5023412;28;20029;-56
2022/12/19 00:14:13;;;;;;;29.88;11.93;;;;;;;-2.74;100.00;99770.84;5010352;28;20060;-56
2022/12/19 00:16:39;;;;;;;36.28;12.43;;;;;;;-2.65;100.00;99793.25;5023351;28;20009;-57
2022/12/19 00:19:04;;;;;;;33.20;11.50;;;;;;;-2.62;100.00;99797.50;5013121;28;20148;-57
2022/12/19 00:21:31;;;;;;;31.17;11.48;;;;;;;-2.58;100.00;99794.59;5022929;28;20195;-57
2022/12/19 00:23:57;;;;;;;35.60;12.68;;;;;;;-2.52;100.00;99793.34;5008521;28;20384;-56
2022/12/19 00:26:26;;;;;;;30.75;12.10;;;;;;;-2.50;100.00;99783.50;5016441;28;20025;-56
2022/12/19 00:28:54;;;;;;;34.17;12.73;;;;;;;-2.49;100.00;99775.47;5000587;28;20084;-56
2022/12/19 00:31:21;;;;;;;34.33;11.65;;;;;;;-2.47;100.00;99767.41;5014839;28;20073;-57
2022/12/19 00:33:47;;;;;;;32.25;12.65;;;;;;;-2.49;100.00;99778.13;5017514;28;20116;-57
2022/12/19 00:36:20;;;;;;;32.40;12.95;;;;;;;-2.42;100.00;99762.66;5018164;28;20017;-56
2022/12/19 00:38:53;;;;;;;33.08;12.07;;;;;;;-2.31;100.00;99754.03;5011770;28;20022;-57
2022/12/19 00:41:21;;;;;;;32.30;12.95;;;;;;;-2.28;100.00;99753.84;5023946;28;20032;-56
2022/12/19 00:43:52;;;;;;;21.73;8.52;;;;;;;-2.36;100.00;99748.19;5017267;28;20025;-56
2022/12/19 00:46:17;;;;;;;36.53;12.75;;;;;;;-2.42;100.00;99730.88;5021206;28;20512;-56
2022/12/19 00:48:42;;;;;;;33.58;11.02;;;;;;;-2.26;100.00;99736.03;5016707;28;20130;-57
2022/12/19 00:51:13;;;;;;;34.38;13.10;;;;;;;-2.12;100.00;99749.25;5026591;28;20022;-62
2022/12/19 00:53:40;;;;;;;33.13;11.88;;;;;;;-2.02;100.00;99749.50;5022038;28;20040;-56
2022/12/19 00:56:10;;;;;;;28.55;11.10;;;;;;;-1.90;100.00;99738.09;5036942;28;20032;-57
2022/12/19 00:58:36;;;;;;;31.13;11.38;;;;;;;-1.80;100.00;99736.53;5017527;28;20018;-56
2022/12/19 01:01:25;;;;;;;30.33;12.05;;;;;;;-1.82;100.00;99724.31;5029888;23;20492;-79
2022/12/19 01:03:51;;;;;;;29.77;11.23;;;;;;;-1.84;100.00;99720.91;5018031;28;20076;-77
2022/12/19 01:06:16;;;;;;;36.63;11.85;;;;;;;-1.89;100.00;99718.56;5035633;28;20034;-78
2022/12/19 01:08:42;;;;;;;33.50;11.45;;;;;;;-1.70;100.00;99717.34;5031575;28;20029;-75
2022/12/19 01:11:08;;;;;;;31.92;10.70;;;;;;;-1.62;100.00;99723.00;4994943;28;20021;-79
2022/12/19 01:13:35;;;;;;;32.10;12.10;;;;;;;-1.64;100.00;99712.47;5013581;28;20045;-75
2022/12/19 01:16:06;;;;;;;28.65;11.30;;;;;;;-1.72;100.00;99693.59;5012720;28;20027;-77
2022/12/19 01:18:32;;;;;;;27.77;10.55;;;;;;;-1.63;100.00;99708.03;5000154;28;20072;-76
2022/12/19 01:21:00;;;;;;;30.65;10.77;;;;;;;-1.55;100.00;99698.59;5020919;28;20160;-77
2022/12/19 01:23:26;;;;;;;26.52;10.55;;;;;;;-1.48;100.00;99690.22;5014204;28;20022;-75
2022/12/19 01:25:52;;;;;;;29.48;11.27;;;;;;;-1.42;100.00;99705.72;5023952;28;20487;-78
2022/12/19 01:28:18;;;;;;;32.25;11.45;;;;;;;-1.46;100.00;99683.84;4999034;28;20044;-77
2022/12/19 01:30:43;;;;;;;31.23;11.48;;;;;;;-1.88;100.00;99618.66;4996890;28;20025;-77
2022/12/19 01:33:14;;;;;;;36.58;11.25;;;;;;;-1.44;100.00;99675.75;5003648;28;20068;-77
2022/12/19 01:35:41;;;;;;;29.13;10.65;;;;;;;-1.42;100.00;99664.09;5005466;28;20387;-76
2022/12/19 01:38:06;;;;;;;25.98;10.82;;;;;;;-1.21;100.00;99688.28;5015802;28;20096;-78
2022/12/19 01:40:33;;;;;;;28.88;11.73;;;;;;;-1.14;100.00;99694.88;5005225;28;20061;-76
2022/12/19 01:43:00;;;;;;;35.92;12.18;;;;;;;-1.22;100.00;99676.00;5015443;28;20029;-77
2022/12/19 01:45:28;;;;;;;28.17;11.30;;;;;;;-0.99;100.00;99702.75;5003612;28;20037;-77
2022/12/19 01:48:01;;;;;;;31.45;11.63;;;;;;;-1.07;100.00;99691.78;5013838;28;20018;-76
2022/12/19 01:50:48;;;;;;;30.80;12.05;;;;;;;-1.06;100.00;99694.34;4988536;28;20112;-78
2022/12/19 01:53:13;;;;;;;27.27;10.48;;;;;;;-1.02;100.00;99677.25;5031574;28;20021;-77
2022/12/19 01:55:40;;;;;;;30.48;11.70;;;;;;;-1.26;100.00;99650.59;5020337;28;20018;-77
2022/12/19 01:58:07;;;;;;;28.00;11.23;;;;;;;-1.11;100.00;99684.03;5018865;28;20030;-78
2022/12/19 02:00:32;;;;;;;31.17;11.63;;;;;;;-1.02;100.00;99663.09;5010737;28;20029;-77
2022/12/19 02:03:22;;;;;;;27.92;10.25;;;;;;;-0.99;100.00;99673.53;4999154;28;20034;-77
2022/12/19 02:05:48;;;;;;;31.95;11.38;;;;;;;-1.10;100.00;99647.75;5000483;28;20025;-77
2022/12/19 02:08:15;;;;;;;27.50;10.20;;;;;;;-0.91;100.00;99647.28;5011168;28;20037;-78
2022/12/19 02:10:40;;;;;;;28.45;10.93;;;;;;;-0.89;100.00;99632.91;5014460;28;20068;-77
2022/12/19 02:13:06;;;;;;;29.42;11.27;;;;;;;-0.68;100.00;99632.34;5020989;28;20627;-77
2022/12/19 02:15:41;;;;;;;29.13;11.02;;;;;;;-0.67;100.00;99613.59;5021737;28;20033;-78
2022/12/19 02:18:32;;;;;;;26.02;10.98;;;;;;;-0.43;100.00;99652.63;5004952;28;20022;-77
2022/12/19 02:21:13;;;;;;;29.60;10.23;;;;;;;-0.41;100.00;99660.50;5001616;28;20483;-78
2022/12/19 02:24:06;;;;;;;29.33;10.68;;;;;;;-0.54;100.00;99655.25;4995667;28;20116;-77
2022/12/19 02:26:50;;;;;;;28.38;11.00;;;;;;;-0.56;100.00;99651.84;5013161;28;20021;-77
2022/12/19 02:29:46;;;;;;;35.53;11.68;;;;;;;-0.57;100.00;99642.19;5008241;28;20034;-75
2022/12/19 02:32:52;;;;;;;31.77;10.07;;;;;;;-0.55;100.00;99629.59;4999151;28;20026;-77
2022/12/19 02:35:35;;;;;;;26.92;10.30;;;;;;;-0.37;100.00;99616.78;5021498;28;20030;-77
2022/12/19 02:38:29;;;;;;;22.75;9.55;;;;;;;-0.39;100.00;99579.69;5005688;28;20110;-77
2022/12/19 02:41:09;;;;;;;30.10;11.27;;;;;;;-0.05;100.00;99631.19;5014743;28;20045;-77
2022/12/19 02:43:41;;;;;;;26.73;9.93;;;;;;;-0.15;100.00;99629.34;5010401;28;20450;-77
2022/12/19 02:46:08;;;;;;;24.58;9.77;;;;;;;-0.26;100.00;99638.13;5011315;28;20365;-77
2022/12/19 02:48:33;;;;;;;29.73;11.25;;;;;;;-0.31;100.00;99624.31;5008504;28;20037;-77
2022/12/19 02:50:59;;;;;;;27.10;11.02;;;;;;;-0.28;100.00;99640.88;5008439;28;20025;-77
2022/12/19 02:53:24;;;;;;;25.42;10.00;;;;;;;-0.26;100.00;99640.78;5009758;28;20026;-76
2022/12/19 02:56:16;;;;;;;27.48;10.55;;;;;;;-0.36;100.00;99637.94;5000510;28;20068;-78
2022/12/19 02:59:19;;;;;;;24.40;9.60;;;;;;;-0.25;100.00;99616.72;5035555;23;20038;-65
2022/12/19 03:02:22;;;;;;;27.23;9.90;;;;;;;-0.23;100.00;99625.44;5026300;28;20057;-65
2022/12/19 03:04:54;;;;;;;25.98;10.05;;;;;;;-0.04;100.00;99626.72;5027190;28;20032;-65
2022/12/19 03:07:39;;;;;;;31.67;11.18;;;;;;;0.13;100.00;99631.63;5007101;28;20026;-65
2022/12/19 03:10:16;;;;;;;26.60;10.05;;;;;;;0.11;100.00;99635.34;5033922;23;20061;-77
2022/12/19 03:12:52;;;;;;;31.52;10.98;;;;;;;0.10;100.00;99655.75;5028134;28;20030;-77
2022/12/19 03:15:19;;;;;;;26.75;9.98;;;;;;;0.15;100.00;99650.09;5035320;28;20030;-77
2022/12/19 03:17:46;;;;;;;27.05;10.18;;;;;;;-0.09;100.00;99643.00;5012373;28;20060;-77
2022/12/19 03:20:46;;;;;;;26.70;10.95;;;;;;;-0.06;100.00;99652.56;5010381;28;20030;-77
2022/12/19 03:23:12;;;;;;;25.75;9.73;;;;;;;-0.18;100.00;99650.81;5031281;28;20026;-77
2022/12/19 03:25:42;;;;;;;27.92;9.90;;;;;;;-0.17;100.00;99666.66;5032404;28;20036;-78
2022/12/19 03:28:12;;;;;;;25.35;10.07;;;;;;;-0.28;100.00;99656.00;5013184;28;20038;-77
2022/12/19 03:30:41;;;;;;;30.90;10.10;;;;;;;-0.33;100.00;99637.72;5020773;28;20050;-77
2022/12/19 03:33:10;;;;;;;28.58;11.18;;;;;;;-0.29;100.00;99639.19;5026743;28;20036;-77
2022/12/19 03:35:36;;;;;;;;;;;;;;;-0.13;100.00;99660.19;5022505;28;20030;-77
2022/12/19 03:38:04;;;;;;;29.42;9.65;;;;;;;-0.15;100.00;99648.78;5024775;28;19913;-77
2022/12/19 03:40:31;;;;;;;30.05;11.45;;;;;;;-0.09;100.00;99658.13;5008869;28;20056;-77
2022/12/19 03:43:08;;;;;;;24.33;9.55;;;;;;;0.04;100.00;99660.72;5014138;28;20030;-77
2022/12/19 03:45:51;;;;;;;33.33;10.65;;;;;;;0.10;100.00;99669.06;5008706;28;20036;-77
2022/12/19 03:48:24;;;;;;;28.00;10.07;;;;;;;0.10;100.00;99666.41;5004820;28;20030;-77
2022/12/19 03:51:17;;;;;;;30.58;10.20;;;;;;;0.12;100.00;99672.47;5018616;28;20430;-77
2022/12/19 03:54:15;;;;;;;29.75;10.63;;;;;;;0.03;100.00;99662.53;5015473;28;20030;-77
2022/12/19 03:56:52;;;;;;;24.23;10.00;;;;;;;0.09;100.00;99654.09;4993770;28;20069;-77
2022/12/19 03:59:42;;;;;;;28.30;10.32;;;;;;;0.06;100.00;99658.78;5018203;28;20113;-77
2022/12/19 04:02:10;;;;;;;26.52;10.00;;;;;;;-0.07;100.00;99648.22;5013313;28;20104;-77
2022/12/19 04:04:40;;;;;;;28.35;10.82;;;;;;;-0.12;100.00;99645.91;5011670;28;20080;-77
2022/12/19 04:07:07;;;;;;;28.98;10.70;;;;;;;-0.13;100.00;99628.25;5015583;28;20022;-77
2022/12/19 04:09:35;;;;;;;25.13;9.88;;;;;;;-0.18;100.00;99618.91;5007732;28;20040;-76
2022/12/19 04:12:07;;;;;;;27.45;9.75;;;;;;;-0.06;100.00;99639.28;5013677;28;20030;-77
2022/12/19 04:14:35;;;;;;;27.80;10.43;;;;;;;-0.09;100.00;99647.47;5013443;28;20033;-77
2022/12/19 04:17:28;;;;;;;26.63;9.85;;;;;;;-0.11;100.00;99652.06;4999035;28;22061;-76
2022/12/19 04:20:00;;;;;;;24.60;9.93;;;;;;;-0.22;100.00;99637.75;5024427;28;20026;-77
2022/12/19 04:22:41;;;;;;;28.92;10.93;;;;;;;-0.12;100.00;99645.91;5025829;28;20060;-77
2022/12/19 04:25:11;;;;;;;22.88;9.05;;;;;;;-0.16;100.00;99631.13;5025303;28;20044;-76
2022/12/19 04:27:40;;;;;;;27.88;8.90;;;;;;;-0.16;100.00;99635.59;5012649;28;20113;-77
2022/12/19 04:30:06;;;;;;;26.65;10.13;;;;;;;-0.13;100.00;99654.84;5007232;28;20387;-77
2022/12/19 04:32:34;;;;;;;25.55;10.05;;;;;;;-0.16;100.00;99657.72;5004903;28;20030;-77
2022/12/19 04:35:00;;;;;;;27.30;9.80;;;;;;;-0.23;100.00;99649.38;5013593;28;20018;-77
2022/12/19 04:37:28;;;;;;;27.38;9.50;;;;;;;-0.16;100.00;99643.56;5013846;28;20064;-77
2022/12/19 04:39:53;;;;;;;25.08;10.27;;;;;;;-0.19;100.00;99638.50;5007392;28;20022;-77
2022/12/19 04:42:18;;;;;;;26.58;9.60;;;;;;;-0.04;100.00;99645.34;5010287;28;20057;-77
2022/12/19 04:44:44;;;;;;;26.13;9.60;;;;;;;0.01;100.00;99645.84;5034354;28;20057;-77
2022/12/19 04:47:09;;;;;;;28.33;10.15;;;;;;;-0.04;100.00;99645.34;5024197;28;20065;-77
2022/12/19 04:49:34;;;;;;;33.85;9.95;;;;;;;0.07;100.00;99660.47;5003848;28;20384;-77
2022/12/19 04:52:00;;;;;;;27.27;9.10;;;;;;;-0.04;100.00;99650.66;5016383;28;20049;-75
2022/12/19 04:54:25;;;;;;;24.75;8.60;;;;;;;-0.03;100.00;99658.53;5016477;28;20026;-81
2022/12/19 04:56:52;;;;;;;28.02;9.77;;;;;;;0.17;100.00;99665.00;4996909;28;20109;-79
2022/12/19 04:59:17;;;;;;;24.85;10.00;;;;;;;0.09;100.00;99664.72;5003752;28;20125;-81
2022/12/19 05:01:43;;;;;;;27.02;10.57;;;;;;;0.10;100.00;99662.91;5002562;28;20057;-79
2022/12/19 05:04:08;;;;;;;29.92;11.35;;;;;;;0.05;100.00;99649.94;5012781;28;20625;-81
2022/12/19 05:06:33;;;;;;;28.05;10.52;;;;;;;0.07;100.00;99647.19;4990448;28;20030;-77
2022/12/19 05:08:59;;;;;;;28.10;10.15;;;;;;;0.19;100.00;99656.91;5014339;28;20034;-81
2022/12/19 05:11:24;;;;;;;30.52;11.25;;;;;;;0.05;100.00;99618.00;5001937;28;20084;-79
2022/12/19 05:13:54;;;;;;;27.92;10.63;;;;;;;0.24;100.00;99636.13;5010923;28;20051;-82
2022/12/19 05:16:19;;;;;;;28.33;10.02;;;;;;;0.35;100.00;99627.31;5005926;28;20117;-81
2022/12/19 05:18:45;;;;;;;28.10;10.55;;;;;;;0.54;100.00;99640.03;5026529;23;20065;-69
2022/12/19 05:21:11;;;;;;;26.23;10.57;;;;;;;0.61;100.00;99633.28;4996187;28;20040;-69
2022/12/19 05:23:37;;;;;;;23.35;9.32;;;;;;;0.65;100.00;99624.06;5000091;28;20112;-68
2022/12/19 05:26:04;;;;;;;28.95;10.15;;;;;;;0.74;100.00;99622.50;5004807;28;20025;-69
2022/12/19 05:28:31;;;;;;;29.13;11.05;;;;;;;0.76;100.00;99631.22;5004262;28;20034;-68
2022/12/19 05:31:09;;;;;;;25.80;9.65;;;;;;;0.74;100.00;99631.34;4994992;28;20037;-69
2022/12/19 05:33:36;;;;;;;23.67;9.82;;;;;;;0.68;100.00;99634.47;4993183;28;20370;-68
2022/12/19 05:36:02;;;;;;;24.20;9.60;;;;;;;0.64;100.00;99633.03;4996270;28;20461;-68
2022/12/19 05:38:27;;;;;;;33.75;11.73;;;;;;;0.59;100.00;99641.38;5016032;28;20036;-69
2022/12/19 05:40:53;;;;;;;27.02;9.82;;;;;;;0.57;100.00;99627.31;4999174;28;20084;-68
2022/12/19 05:43:19;;;;;;;29.33;10.38;;;;;;;0.58;100.00;99626.38;4998733;28;20045;-69
2022/12/19 05:45:44;;;;;;;25.85;10.65;;;;;;;0.64;100.00;99622.38;4998899;28;20073;-69
2022/12/19 05:48:10;;;;;;;29.20;9.50;;;;;;;0.61;100.00;99622.63;5014185;28;20125;-69
2022/12/19 05:50:35;;;;;;;25.95;9.95;;;;;;;0.67;100.00;99615.97;4996192;28;20022;-68
2022/12/19 05:53:01;;;;;;;24.23;9.60;;;;;;;0.73;100.00;99602.16;5001051;28;20295;-68
2022/12/19 05:55:26;;;;;;;26.92;10.32;;;;;;;0.85;100.00;99615.34;5011055;28;20085;-69
2022/12/19 05:57:52;;;;;;;26.02;10.18;;;;;;;0.73;100.00;99603.00;5006554;28;20038;-68
2022/12/19 06:00:17;;;;;;;26.13;10.10;;;;;;;0.68;100.00;99607.84;5006346;28;20030;-69
2022/12/19 06:02:46;;;;;;;25.90;10.02;;;;;;;0.56;100.00;99609.66;4995961;28;20080;-69
2022/12/19 06:05:13;;;;;;;26.23;9.50;;;;;;;0.59;100.00;99605.91;4990079;28;20049;-69
2022/12/19 06:07:38;;;;;;;28.23;9.63;;;;;;;0.61;100.00;99596.00;5020284;28;20030;-69
2022/12/19 06:10:05;;;;;;;27.80;10.02;;;;;;;0.67;100.00;99594.66;5011902;28;20543;-70
2022/12/19 06:12:31;;;;;;;27.85;9.48;;;;;;;0.72;100.00;99595.16;5005855;28;20109;-70
2022/12/19 06:14:57;;;;;;;26.38;9.27;;;;;;;0.77;100.00;99592.97;5024908;28;20482;-69
2022/12/19 06:17:23;;;;;;;20.55;8.98;;;;;;;0.81;100.00;99594.41;4995364;28;20029;-69
2022/12/19 06:19:48;;;;;;;25.38;9.05;;;;;;;0.91;100.00;99595.38;5002069;28;20478;-69
2022/12/19 06:22:36;;;;;;;25.33;10.20;;;;;;;1.02;100.00;99597.16;5014307;28;20026;-71
2022/12/19 06:25:06;;;;;;;23.25;7.25;;;;;;;1.10;100.00;99589.41;4997649;28;20077;-69
2022/12/19 06:30:25;;;;;;;21.95;9.20;;;;;;;1.20;100.00;99594.84;5080980;22;20102;-68
2022/12/19 06:36:28;;;;;;;24.58;8.57;;;;;;;1.20;100.00;99602.84;5008992;28;20052;-68
2022/12/19 06:38:56;;;;;;;25.83;9.15;;;;;;;1.12;100.00;99602.63;4995685;28;20207;-67
2022/12/19 06:44:09;;;;;;;24.67;9.85;;;;;;;1.09;100.00;99601.88;5012178;28;20041;-67
2022/12/19 06:46:36;;;;;;;25.63;10.38;;;;;;;1.07;100.00;99593.19;4998541;28;20032;-68
2022/12/19 06:49:02;;;;;;;19.88;8.23;;;;;;;1.12;100.00;99595.47;4993807;28;20056;-68
2022/12/19 06:51:28;;;;;;;25.70;9.60;;;;;;;1.13;100.00;99598.97;4988311;28;20034;-68
2022/12/19 06:53:54;;;;;;;24.88;9.90;;;;;;;1.09;100.00;99606.38;5002969;28;20033;-68
2022/12/19 06:56:20;;;;;;;24.95;9.88;;;;;;;1.04;100.00;99601.41;5000903;28;20036;-68
2022/12/19 06:58:46;;;;;;;26.23;9.77;;;;;;;0.94;100.00;99604.94;5005729;28;20022;-65
2022/12/19 07:01:55;;;;;;;27.15;9.52;;;;;;;0.95;100.00;99593.31;4994772;28;20026;-66
2022/12/19 07:04:30;;;;;;;;;;;;;;;1.00;100.00;99599.13;4997903;28;20030;-66
2022/12/19 07:06:56;;;;;;;22.55;9.02;;;;;;;1.02;100.00;99600.72;4998788;28;19917;-66
2022/12/19 07:09:21;;;;;;;22.63;9.55;;;;;;;1.13;100.00;99605.16;4994868;28;20030;-66
2022/12/19 07:11:47;;;;;;;24.15;9.85;;;;;;;1.16;100.00;99598.75;4988941;28;20028;-66
2022/12/19 07:14:12;;;;;;;25.15;11.02;;;;;;;1.17;100.00;99603.94;5003250;28;20026;-66
2022/12/19 07:16:39;;;;;;;32.22;11.57;;;;;;;1.20;100.00;99600.19;4990389;28;20473;-66
2022/12/19 07:19:06;;;;;;;28.13;10.85;;;;;;;1.25;100.00;99592.66;4985404;28;20026;-68
2022/12/19 07:21:31;;;;;;;26.98;10.30;;;;;;;1.30;100.00;99609.13;4990249;28;20048;-66
2022/12/19 07:23:57;;;;;;;26.83;11.38;;;;;;;1.38;100.00;99606.69;5001734;28;20026;-68
2022/12/19 07:26:23;;;;;;;23.38;9.65;;;;;;;1.37;100.00;99601.50;4992839;28;20037;-66
2022/12/19 07:28:48;;;;;;;22.23;9.80;;;;;;;1.34;100.00;99607.91;4993005;28;20030;-66
2022/12/19 07:31:14;;;;;;;25.92;10.15;;;;;;;1.27;100.00;99602.22;5002936;28;20513;-66
2022/12/19 07:33:43;;;;;;;26.23;10.23;;;;;;;1.18;100.00;99610.09;5006002;28;20033;-67
2022/12/19 07:36:09;;;;;;;25.15;10.05;;;;;;;1.08;100.00;99602.88;5015735;28;20384;-67
2022/12/19 07:38:35;;;;;;;23.77;10.82;;;;;;;1.01;100.00;99614.16;4996713;28;20021;-66
2022/12/19 07:41:01;;;;;;;30.60;11.35;;;;;;;0.97;100.00;99608.22;5023234;28;20358;-67
2022/12/19 07:43:26;;;;;;;28.67;11.55;;;;;;;0.93;100.00;99595.25;5008727;28;20031;-66
2022/12/19 07:45:55;;;;;;;31.08;10.43;;;;;;;0.94;100.00;99604.94;4994822;28;20030;-66
2022/12/19 07:48:23;;;;;;;28.90;10.48;;;;;;;1.05;100.00;99600.47;4992633;28;20038;-66
2022/12/19 07:50:48;;;;;;;29.63;11.98;;;;;;;1.24;100.00;99614.97;4992604;28;20026;-66
2022/12/19 07:53:15;;;;;;;30.38;11.52;;;;;;;1.34;100.00;99615.91;5003333;28;20083;-66
2022/12/19 07:55:41;;;;;;;30.65;10.93;;;;;;;1.50;100.00;99608.34;4991976;28;20026;-68
2022/12/19 07:58:10;;;;;;;29.15;11.00;;;;;;;1.66;100.00;99618.59;4997364;28;20100;-67
2022/12/19 08:00:36;;;;;;;26.63;12.07;;;;;;;1.81;100.00;99623.63;5002180;28;20521;-67
2022/12/19 08:03:02;;;;;;;27.90;10.85;;;;;;;1.82;100.00;99615.50;4993010;28;20113;-67
2022/12/19 08:05:27;;;;;;;26.58;10.60;;;;;;;2.00;100.00;99623.81;4988436;28;20132;-67
2022/12/19 08:07:53;;;;;;;26.48;11.18;;;;;;;1.97;100.00;99614.25;5007462;28;21296;-67
2022/12/19 08:10:21;;;;;;;32.13;10.15;;;;;;;2.06;100.00;99609.09;4996574;28;20148;-67
2022/12/19 08:12:46;;;;;;;27.83;10.35;;;;;;;2.06;100.00;99622.44;5015966;28;20025;-66
2022/12/19 08:15:12;;;;;;;30.23;11.90;;;;;;;1.97;100.00;99619.56;5006697;28;20047;-67
2022/12/19 08:17:37;;;;;;;30.77;11.18;;;;;;;2.07;100.00;99621.47;4998357;28;20116;-67
2022/12/19 08:20:05;;;;;;;27.75;10.60;;;;;;;2.12;100.00;99625.47;5000077;28;20041;-67
2022/12/19 08:22:31;;;;;;;32.40;11.63;;;;;;;2.19;100.00;99615.09;5008275;28;20021;-67
2022/12/19 08:24:56;;;;;;;28.27;11.35;;;;;;;2.29;100.00;99623.19;4997436;28;20080;-67
2022/12/19 08:27:22;;;;;;;25.45;9.48;;;;;;;2.40;100.00;99631.13;4992437;28;20053;-66
2022/12/19 08:29:47;;;;;;;27.38;10.48;;;;;;;2.51;100.00;99622.19;5000511;28;20028;-67
2022/12/19 08:32:15;;;;;;;30.42;11.05;;;;;;;2.58;100.00;99631.38;5005749;28;20041;-67
2022/12/19 08:34:41;;;;;;;26.52;10.32;;;;;;;2.61;100.00;99631.09;4998446;28;20393;-66
2022/12/19 08:37:07;;;;;;;27.83;11.57;;;;;;;2.71;100.00;99640.00;5017314;28;20017;-67
2022/12/19 08:39:33;;;;;;;24.63;10.52;;;;;;;2.85;100.00;99620.94;4999490;28;20021;-67
2022/12/19 08:41:59;;;;;;;23.92;11.30;;;;;;;3.00;100.00;99628.63;5003943;28;20436;-67
2022/12/19 08:44:25;;;;;;;28.05;10.80;;;;;;;2.97;100.00;99613.69;5007089;28;20040;-67
2022/12/19 08:46:51;;;;;;;29.65;11.88;;;;;;;2.85;100.00;99620.94;4999214;28;20026;-66
2022/12/19 08:49:17;;;;;;;26.52;11.13;;;;;;;2.81;100.00;99616.88;4994346;28;20422;-66
2022/12/19 08:51:43;;;;;;;32.80;11.93;;;;;;;2.72;100.00;99623.00;5006701;28;20385;-66
2022/12/19 08:54:09;;;;;;;24.75;10.90;;;;;;;2.93;100.00;99612.25;4996621;28;20030;-66
2022/12/19 08:56:34;;;;;;;28.38;11.95;;;;;;;2.93;100.00;99612.25;4999745;28;20025;-67
2022/12/19 08:59:00;;;;;;;27.08;10.63;;;;;;;2.99;100.00;99603.72;5006904;28;20033;-66
2022/12/19 09:01:25;;;;;;;25.95;10.57;;;;;;;2.94;100.00;99610.44;5000823;28;20508;-66
2022/12/19 09:03:51;;;;;;;23.50;10.30;;;;;;;3.12;100.00;99599.94;5008968;28;20027;-65
2022/12/19 09:06:16;;;;;;;28.27;11.35;;;;;;;3.21;100.00;99601.81;4995452;28;20030;-67
2022/12/19 09:08:42;;;;;;;29.50;11.18;;;;;;;3.42;100.00;99596.38;5002613;28;20029;-66
2022/12/19 09:11:10;;;;;;;26.63;10.45;;;;;;;3.52;100.00;99591.88;4992860;28;20021;-66
2022/12/19 09:13:37;;;;;;;26.80;11.20;;;;;;;3.56;100.00;99582.56;5019790;28;20018;-66
2022/12/19 09:16:06;;;;;;;33.80;11.70;;;;;;;3.34;100.00;99589.03;5008042;28;20030;-65
2022/12/19 09:18:32;;;;;;;30.27;10.38;;;;;;;3.24;100.00;99596.19;4995228;28;20028;-65
2022/12/19 09:20:59;;;;;;;23.60;9.82;;;;;;;3.20;100.00;99587.59;5002029;28;20497;-65
2022/12/19 09:23:26;;;;;;;26.52;10.15;;;;;;;3.31;100.00;99583.97;4991945;28;20026;-66
2022/12/19 09:25:52;;;;;;;26.38;10.18;;;;;;;3.51;100.00;99579.47;4993042;28;20030;-67
2022/12/19 09:28:17;;;;;;;22.90;9.70;;;;;;;3.65;100.00;99589.78;4994740;28;20038;-66
2022/12/19 09:30:43;;;;;;;23.48;9.90;;;;;;;3.71;100.00;99573.16;5003033;28;20025;-66
2022/12/19 09:33:10;;;;;;;23.80;9.63;;;;;;;3.72;100.00;99577.53;4998574;28;20504;-66
2022/12/19 09:35:35;;;;;;;19.40;9.18;;;;;;;3.80;100.00;99584.00;5004708;28;20481;-65
2022/12/19 09:44:14;;;;;;;21.13;9.38;;;;;;;4.12;100.00;99579.19;5037040;22;20053;-66
2022/12/19 09:46:54;;;;;;;18.45;8.32;;;;;;;4.34;100.00;99582.53;4989455;28;20038;-66
2022/12/19 09:49:37;;;;;;;20.90;8.45;;;;;;;4.55;100.00;99585.03;4995939;28;20026;-67
2022/12/19 09:52:07;;;;;;;19.05;8.38;;;;;;;4.79;100.00;99565.75;4988909;28;20026;-66
2022/12/19 09:54:37;;;;;;;20.20;8.18;;;;;;;4.71;100.00;99565.66;4984549;28;20026;-66
2022/12/19 09:57:48;;;;;;;20.45;8.70;;;;;;;4.76;100.00;99566.03;4988972;28;20019;-62
2022/12/19 10:00:18;;;;;;;23.55;9.05;;;;;;;4.84;100.00;99568.84;4992819;28;20076;-63
2022/12/19 10:02:56;;;;;;;23.17;9.45;;;;;;;5.07;100.00;99569.28;4983321;28;20462;-64
2022/12/19 10:05:46;;;;;;;16.95;8.32;;;;;;;5.01;100.00;99568.06;4995432;28;20096;-63
2022/12/19 10:08:17;;;;;;;19.25;8.55;;;;;;;5.51;100.00;99563.25;4996665;28;20021;-63
2022/12/19 10:10:49;;;;;;;21.30;8.10;;;;;;;5.92;100.00;99576.06;5003305;28;20363;-63
2022/12/19 10:13:34;;;;;;;26.20;8.48;;;;;;;5.90;100.00;99578.06;5022647;28;20458;-63
2022/12/19 10:16:12;;;;;;;18.40;7.97;;;;;;;5.90;100.00;99563.78;5000863;28;20116;-62
2022/12/19 10:18:52;;;;;;;18.67;8.07;;;;;;;6.00;100.00;99564.56;5003057;28;20083;-62
2022/12/19 10:21:51;;;;;;;24.60;9.02;;;;;;;5.92;100.00;99556.38;4992007;28;20042;-63
2022/12/19 10:24:27;;;;;;;18.67;7.85;;;;;;;6.02;100.00;99538.38;4993807;28;20037;-63
2022/12/19 10:26:59;;;;;;;14.77;7.32;;;;;;;6.13;100.00;99539.97;4994797;28;20426;-64
2022/12/19 10:29:43;;;;;;;14.20;6.80;;;;;;;6.19;100.00;99530.47;5002501;28;20030;-62
2022/12/19 10:32:18;;;;;;;16.63;6.95;;;;;;;6.32;100.00;99545.16;5012315;28;20056;-62
2022/12/19 10:34:47;;;;;;;16.83;7.53;;;;;;;6.42;100.00;99537.00;4998845;28;20149;-62
2022/12/19 10:37:35;;;;;;;14.93;6.93;;;;;;;6.35;100.00;99538.63;5001402;28;20369;-62
2022/12/19 10:40:22;;;;;;;16.80;7.20;;;;;;;6.53;100.00;99525.97;5000809;28;20040;-62
2022/12/19 10:42:50;;;;;;;11.93;6.18;;;;;;;6.66;100.00;99514.78;5005113;28;20022;-62
2022/12/19 10:45:18;;;;;;;14.82;7.05;;;;;;;6.88;100.00;99517.91;4999081;28;20058;-62
2022/12/19 10:47:47;;;;;;;16.05;6.80;;;;;;;7.82;100.00;99505.97;4993542;28;20033;-62
2022/12/19 10:50:20;;;;;;;16.10;7.15;;;;;;;9.27;100.00;99502.19;4989599;28;20030;-62
2022/12/19 10:53:02;;;;;;;14.13;7.07;;;;;;;9.60;100.00;99508.25;4997464;28;20032;-62
2022/12/19 10:55:43;;;;;;;16.08;7.10;;;;;;;10.86;97.86;99500.47;5014747;28;20049;-62
2022/12/19 10:58:11;;;;;;;15.02;7.10;;;;;;;11.24;87.52;99505.72;4990830;28;20556;-64
2022/12/19 11:01:04;;;;;;;15.32;7.07;;;;;;;11.71;84.13;99501.63;5005472;28;20057;-64
2022/12/19 11:03:33;;;;;;;14.15;6.63;;;;;;;10.36;88.41;99502.06;4967769;28;20116;-63
2022/12/19 11:06:01;;;;;;;13.90;6.97;;;;;;;9.78;100.00;99497.13;4992256;28;20041;-63
2022/12/19 11:08:33;;;;;;;17.00;7.95;;;;;;;9.46;100.00;99473.91;5013689;28;20141;-66
2022/12/19 11:11:04;;;;;;;14.65;6.80;;;;;;;9.54;100.00;99481.13;4997590;28;20109;-57
2022/12/19 11:13:34;;;;;;;14.02;6.70;;;;;;;10.55;100.00;99474.44;5010720;28;20034;-58
2022/12/19 11:16:02;;;;;;;15.02;7.05;;;;;;;11.23;87.81;99475.09;4992165;28;20069;-57
2022/12/19 11:18:42;;;;;;;14.27;7.35;;;;;;;11.41;85.86;99466.53;4998444;28;20022;-63
2022/12/19 11:21:27;;;;;;;16.25;6.85;;;;;;;10.72;88.39;99483.22;4988589;28;20029;-64
2022/12/19 11:24:01;;;;;;;16.00;6.88;;;;;;;10.15;92.96;99481.94;4995350;28;20021;-62
2022/12/19 11:26:39;;;;;;;12.90;6.68;;;;;;;9.78;100.00;99474.69;4996078;28;20113;-62
2022/12/19 11:29:19;;;;;;;15.07;7.35;;;;;;;9.30;100.00;99466.75;4991591;28;20032;-60
2022/12/19 11:31:46;;;;;;;15.85;7.65;;;;;;;9.17;100.00;99471.91;4999861;28;20080;-60
2022/12/19 11:34:23;;;;;;;15.82;8.05;;;;;;;9.42;100.00;99465.31;5015059;28;20056;-60
2022/12/19 11:36:55;;;;;;;12.95;7.05;;;;;;;9.59;100.00;99457.09;5002885;28;20103;-61
2022/12/19 11:39:28;;;;;;;15.93;7.30;;;;;;;9.76;100.00;99453.22;5013267;28;20033;-60
2022/12/19 11:42:24;;;;;;;13.88;6.90;;;;;;;10.09;100.00;99455.66;4987273;28;20484;-60
2022/12/19 11:45:04;;;;;;;14.25;6.82;;;;;;;9.66;100.00;99450.78;4979328;28;20033;-61
2022/12/19 11:47:38;;;;;;;12.32;6.30;;;;;;;9.50;100.00;99439.28;4992322;28;20608;-61
2022/12/19 11:50:27;;;;;;;12.07;6.25;;;;;;;9.47;100.00;99451.28;4991050;28;20095;-61